sensor_id;sensor_type;location;lat;lon;timestamp;P1;durP1;ratioP1;P2;durP2;ratioP2
18651;SDS011;9455;54.302;10.124;2023-04-01T00:01:52;10.07;;;5.93;;
18651;SDS011;9455;54.302;10.124;2023-04-01T00:04:19;12.47;;;5.77;;
18651;SDS011;9455;54.302;10.124;2023-04-01T00:06:46;10.17;;;5.30;;
18651;SDS011;9455;54.302;10.124;2023-04-01T00:09:13;12.47;;;6.33;;
18651;SDS011;9455;54.302;10.124;2023-04-01T00:11:40;16.87;;;5.37;;
18651;SDS011;9455;54.302;10.124;2023-04-01T00:14:06;9.23;;;4.30;;
18651;SDS011;9455;54.302;10.124;2023-04-01T00:16:33;7.53;;;5.33;;
18651;SDS011;9455;54.302;10.124;2023-04-01T00:19:01;15.03;;;5.90;;
18651;SDS011;9455;54.302;10.124;2023-04-01T00:21:28;6.83;;;4.93;;
18651;SDS011;9455;54.302;10.124;2023-04-01T00:23:55;9.70;;;4.73;;
18651;SDS011;9455;54.302;10.124;2023-04-01T00:26:21;10.30;;;4.50;;
18651;SDS011;9455;54.302;10.124;2023-04-01T00:28:48;10.03;;;4.67;;
18651;SDS011;9455;54.302;10.124;2023-04-01T00:31:15;8.67;;;4.47;;
18651;SDS011;9455;54.302;10.124;2023-04-01T00:33:41;9.73;;;4.80;;
18651;SDS011;9455;54.302;10.124;2023-04-01T00:36:10;12.33;;;4.50;;
18651;SDS011;9455;54.302;10.124;2023-04-01T00:38:38;4.97;;;3.80;;
18651;SDS011;9455;54.302;10.124;2023-04-01T00:41:05;3.87;;;3.47;;
18651;SDS011;9455;54.302;10.124;2023-04-01T00:43:32;5.50;;;3.60;;
18651;SDS011;9455;54.302;10.124;2023-04-01T00:46:00;4.80;;;3.20;;
18651;SDS011;9455;54.302;10.124;2023-04-01T00:48:27;4.00;;;3.30;;
18651;SDS011;9455;54.302;10.124;2023-04-01T00:50:58;6.70;;;3.17;;
18651;SDS011;9455;54.302;10.124;2023-04-01T00:53:28;4.97;;;2.47;;
18651;SDS011;9455;54.302;10.124;2023-04-01T00:55:58;4.13;;;2.60;;
18651;SDS011;9455;54.302;10.124;2023-04-01T00:58:29;4.03;;;2.67;;
18651;SDS011;9455;54.302;10.124;2023-04-01T01:00:59;3.50;;;2.70;;
18651;SDS011;9455;54.302;10.124;2023-04-01T01:03:26;3.90;;;2.17;;
18651;SDS011;9455;54.302;10.124;2023-04-01T01:11:45;3.63;;;2.60;;
18651;SDS011;9455;54.302;10.124;2023-04-01T01:14:22;3.20;;;2.60;;
18651;SDS011;9455;54.302;10.124;2023-04-01T01:17:02;2.90;;;2.50;;
18651;SDS011;9455;54.302;10.124;2023-04-01T01:19:48;3.30;;;2.80;;
18651;SDS011;9455;54.302;10.124;2023-04-01T01:22:28;4.47;;;3.50;;
18651;SDS011;9455;54.302;10.124;2023-04-01T01:27:54;5.07;;;3.20;;
18651;SDS011;9455;54.302;10.124;2023-04-01T01:30:39;3.57;;;3.23;;
18651;SDS011;9455;54.302;10.124;2023-04-01T01:33:17;5.27;;;2.60;;
18651;SDS011;9455;54.302;10.124;2023-04-01T01:36:00;5.70;;;2.97;;
18651;SDS011;9455;54.302;10.124;2023-04-01T01:38:31;4.27;;;2.57;;
18651;SDS011;9455;54.302;10.124;2023-04-01T01:41:00;5.53;;;2.73;;
18651;SDS011;9455;54.302;10.124;2023-04-01T01:43:30;5.00;;;2.97;;
18651;SDS011;9455;54.302;10.124;2023-04-01T01:46:00;8.00;;;3.20;;
18651;SDS011;9455;54.302;10.124;2023-04-01T01:48:33;2.57;;;2.37;;
18651;SDS011;9455;54.302;10.124;2023-04-01T01:51:01;2.57;;;2.30;;
18651;SDS011;9455;54.302;10.124;2023-04-01T01:53:29;2.43;;;2.20;;
18651;SDS011;9455;54.302;10.124;2023-04-01T01:55:56;2.50;;;2.40;;
18651;SDS011;9455;54.302;10.124;2023-04-01T01:58:23;3.93;;;2.30;;
18651;SDS011;9455;54.302;10.124;2023-04-01T02:00:55;2.57;;;2.33;;
18651;SDS011;9455;54.302;10.124;2023-04-01T02:03:25;1.97;;;1.87;;
18651;SDS011;9455;54.302;10.124;2023-04-01T02:05:56;2.43;;;2.23;;
18651;SDS011;9455;54.302;10.124;2023-04-01T02:08:28;1.93;;;1.83;;
18651;SDS011;9455;54.302;10.124;2023-04-01T02:11:02;5.03;;;2.00;;
18651;SDS011;9455;54.302;10.124;2023-04-01T02:13:34;2.97;;;1.47;;
18651;SDS011;9455;54.302;10.124;2023-04-01T02:16:05;2.13;;;1.53;;
18651;SDS011;9455;54.302;10.124;2023-04-01T02:18:37;2.40;;;1.70;;
18651;SDS011;9455;54.302;10.124;2023-04-01T02:21:05;1.63;;;1.30;;
18651;SDS011;9455;54.302;10.124;2023-04-01T02:23:35;1.40;;;1.30;;
18651;SDS011;9455;54.302;10.124;2023-04-01T02:26:04;1.40;;;1.30;;
18651;SDS011;9455;54.302;10.124;2023-04-01T02:28:33;3.40;;;1.67;;
18651;SDS011;9455;54.302;10.124;2023-04-01T02:31:02;3.40;;;1.10;;
18651;SDS011;9455;54.302;10.124;2023-04-01T02:33:30;2.07;;;1.33;;
18651;SDS011;9455;54.302;10.124;2023-04-01T02:35:57;0.93;;;0.93;;
18651;SDS011;9455;54.302;10.124;2023-04-01T02:38:25;8.80;;;1.57;;
18651;SDS011;9455;54.302;10.124;2023-04-01T02:40:57;0.93;;;0.93;;
18651;SDS011;9455;54.302;10.124;2023-04-01T02:43:25;1.40;;;0.90;;
18651;SDS011;9455;54.302;10.124;2023-04-01T02:45:52;0.67;;;0.67;;
18651;SDS011;9455;54.302;10.124;2023-04-01T02:48:19;1.17;;;1.17;;
18651;SDS011;9455;54.302;10.124;2023-04-01T02:50:46;1.63;;;1.00;;
18651;SDS011;9455;54.302;10.124;2023-04-01T02:53:12;0.70;;;0.70;;
18651;SDS011;9455;54.302;10.124;2023-04-01T02:55:39;1.17;;;0.73;;
18651;SDS011;9455;54.302;10.124;2023-04-01T02:58:07;4.13;;;0.70;;
18651;SDS011;9455;54.302;10.124;2023-04-01T03:00:34;0.77;;;0.77;;
18651;SDS011;9455;54.302;10.124;2023-04-01T03:03:00;0.90;;;0.90;;
18651;SDS011;9455;54.302;10.124;2023-04-01T03:05:27;3.53;;;0.53;;
18651;SDS011;9455;54.302;10.124;2023-04-01T03:07:54;0.80;;;0.77;;
18651;SDS011;9455;54.302;10.124;2023-04-01T03:10:21;1.53;;;0.60;;
18651;SDS011;9455;54.302;10.124;2023-04-01T03:12:48;1.87;;;0.90;;
18651;SDS011;9455;54.302;10.124;2023-04-01T03:15:16;0.57;;;0.57;;
18651;SDS011;9455;54.302;10.124;2023-04-01T03:17:43;1.57;;;0.83;;
18651;SDS011;9455;54.302;10.124;2023-04-01T03:20:10;1.17;;;0.60;;
18651;SDS011;9455;54.302;10.124;2023-04-01T03:22:37;2.57;;;0.70;;
18651;SDS011;9455;54.302;10.124;2023-04-01T03:25:04;0.97;;;0.70;;
18651;SDS011;9455;54.302;10.124;2023-04-01T03:27:32;0.50;;;0.50;;
18651;SDS011;9455;54.302;10.124;2023-04-01T03:29:59;0.50;;;0.50;;
18651;SDS011;9455;54.302;10.124;2023-04-01T03:32:27;1.80;;;0.60;;
18651;SDS011;9455;54.302;10.124;2023-04-01T03:34:54;0.50;;;0.50;;
18651;SDS011;9455;54.302;10.124;2023-04-01T03:37:20;0.50;;;0.50;;
18651;SDS011;9455;54.302;10.124;2023-04-01T03:39:47;0.83;;;0.80;;
18651;SDS011;9455;54.302;10.124;2023-04-01T03:42:14;1.03;;;0.60;;
18651;SDS011;9455;54.302;10.124;2023-04-01T03:44:40;2.17;;;0.60;;
18651;SDS011;9455;54.302;10.124;2023-04-01T03:47:07;0.60;;;0.60;;
18651;SDS011;9455;54.302;10.124;2023-04-01T03:49:36;0.70;;;0.70;;
18651;SDS011;9455;54.302;10.124;2023-04-01T03:52:03;1.70;;;0.70;;
18651;SDS011;9455;54.302;10.124;2023-04-01T03:54:30;0.83;;;0.83;;
18651;SDS011;9455;54.302;10.124;2023-04-01T03:56:57;2.30;;;1.00;;
18651;SDS011;9455;54.302;10.124;2023-04-01T03:59:23;0.70;;;0.70;;
18651;SDS011;9455;54.302;10.124;2023-04-01T04:01:50;1.73;;;0.70;;
18651;SDS011;9455;54.302;10.124;2023-04-01T04:04:17;0.70;;;0.70;;
18651;SDS011;9455;54.302;10.124;2023-04-01T04:06:45;0.80;;;0.80;;
18651;SDS011;9455;54.302;10.124;2023-04-01T04:09:11;0.90;;;0.90;;
18651;SDS011;9455;54.302;10.124;2023-04-01T04:11:38;1.00;;;1.00;;
18651;SDS011;9455;54.302;10.124;2023-04-01T04:14:05;1.13;;;1.07;;
18651;SDS011;9455;54.302;10.124;2023-04-01T04:16:32;2.00;;;1.00;;
18651;SDS011;9455;54.302;10.124;2023-04-01T04:19:02;2.27;;;1.03;;
18651;SDS011;9455;54.302;10.124;2023-04-01T04:21:29;2.63;;;1.03;;
18651;SDS011;9455;54.302;10.124;2023-04-01T04:23:57;1.17;;;1.17;;
18651;SDS011;9455;54.302;10.124;2023-04-01T04:26:24;3.00;;;1.30;;
18651;SDS011;9455;54.302;10.124;2023-04-01T04:28:51;2.63;;;1.20;;
18651;SDS011;9455;54.302;10.124;2023-04-01T04:31:19;2.00;;;1.20;;
18651;SDS011;9455;54.302;10.124;2023-04-01T04:33:47;1.30;;;1.30;;
18651;SDS011;9455;54.302;10.124;2023-04-01T04:36:13;2.70;;;1.10;;
18651;SDS011;9455;54.302;10.124;2023-04-01T04:38:40;1.20;;;1.20;;
18651;SDS011;9455;54.302;10.124;2023-04-01T04:41:09;2.73;;;1.43;;
18651;SDS011;9455;54.302;10.124;2023-04-01T04:43:37;0.90;;;0.90;;
18651;SDS011;9455;54.302;10.124;2023-04-01T04:46:04;2.77;;;1.20;;
18651;SDS011;9455;54.302;10.124;2023-04-01T04:48:32;1.47;;;1.40;;
18651;SDS011;9455;54.302;10.124;2023-04-01T04:50:58;1.03;;;1.03;;
18651;SDS011;9455;54.302;10.124;2023-04-01T04:53:25;1.83;;;1.30;;
18651;SDS011;9455;54.302;10.124;2023-04-01T04:55:53;1.20;;;1.20;;
18651;SDS011;9455;54.302;10.124;2023-04-01T04:58:21;1.50;;;1.30;;
18651;SDS011;9455;54.302;10.124;2023-04-01T05:00:47;1.50;;;1.40;;
18651;SDS011;9455;54.302;10.124;2023-04-01T05:03:14;4.00;;;1.13;;
18651;SDS011;9455;54.302;10.124;2023-04-01T05:05:47;1.67;;;1.57;;
18651;SDS011;9455;54.302;10.124;2023-04-01T05:08:14;1.53;;;1.47;;
18651;SDS011;9455;54.302;10.124;2023-04-01T05:10:41;1.20;;;1.17;;
18651;SDS011;9455;54.302;10.124;2023-04-01T05:13:07;1.40;;;1.30;;
18651;SDS011;9455;54.302;10.124;2023-04-01T05:15:36;2.20;;;1.20;;
18651;SDS011;9455;54.302;10.124;2023-04-01T05:18:02;1.93;;;1.07;;
18651;SDS011;9455;54.302;10.124;2023-04-01T05:20:29;1.27;;;0.90;;
18651;SDS011;9455;54.302;10.124;2023-04-01T05:22:56;1.23;;;1.20;;
18651;SDS011;9455;54.302;10.124;2023-04-01T05:25:23;3.40;;;1.13;;
18651;SDS011;9455;54.302;10.124;2023-04-01T05:27:50;2.90;;;1.00;;
18651;SDS011;9455;54.302;10.124;2023-04-01T05:30:16;3.80;;;1.30;;
18651;SDS011;9455;54.302;10.124;2023-04-01T05:32:45;1.57;;;1.20;;
18651;SDS011;9455;54.302;10.124;2023-04-01T05:35:11;3.50;;;1.57;;
18651;SDS011;9455;54.302;10.124;2023-04-01T05:37:38;1.93;;;1.50;;
18651;SDS011;9455;54.302;10.124;2023-04-01T05:40:05;3.53;;;1.63;;
18651;SDS011;9455;54.302;10.124;2023-04-01T05:42:33;1.20;;;1.20;;
18651;SDS011;9455;54.302;10.124;2023-04-01T05:44:59;2.00;;;1.00;;
18651;SDS011;9455;54.302;10.124;2023-04-01T05:47:26;4.50;;;1.20;;
18651;SDS011;9455;54.302;10.124;2023-04-01T05:49:54;1.27;;;1.17;;
18651;SDS011;9455;54.302;10.124;2023-04-01T05:52:21;3.40;;;1.30;;
18651;SDS011;9455;54.302;10.124;2023-04-01T05:54:48;2.37;;;1.40;;
18651;SDS011;9455;54.302;10.124;2023-04-01T05:57:14;3.37;;;1.30;;
18651;SDS011;9455;54.302;10.124;2023-04-01T05:59:41;1.50;;;1.40;;
18651;SDS011;9455;54.302;10.124;2023-04-01T06:02:08;2.83;;;1.33;;
18651;SDS011;9455;54.302;10.124;2023-04-01T06:04:37;1.23;;;0.90;;
18651;SDS011;9455;54.302;10.124;2023-04-01T06:07:11;5.77;;;1.50;;
18651;SDS011;9455;54.302;10.124;2023-04-01T06:09:39;1.70;;;1.13;;
18651;SDS011;9455;54.302;10.124;2023-04-01T06:12:18;1.00;;;1.00;;
18651;SDS011;9455;54.302;10.124;2023-04-01T06:15:06;1.47;;;1.47;;
18651;SDS011;9455;54.302;10.124;2023-04-01T06:17:46;3.63;;;1.40;;
18651;SDS011;9455;54.302;10.124;2023-04-01T06:20:29;1.17;;;1.07;;
18651;SDS011;9455;54.302;10.124;2023-04-01T06:23:11;1.47;;;1.37;;
18651;SDS011;9455;54.302;10.124;2023-04-01T06:25:51;2.37;;;1.00;;
18651;SDS011;9455;54.302;10.124;2023-04-01T06:31:20;6.53;;;1.57;;
18651;SDS011;9455;54.302;10.124;2023-04-01T06:34:04;1.90;;;1.10;;
18651;SDS011;9455;54.302;10.124;2023-04-01T06:36:56;1.20;;;1.20;;
18651;SDS011;9455;54.302;10.124;2023-04-01T06:39:40;9.00;;;1.70;;
18651;SDS011;9455;54.302;10.124;2023-04-01T06:42:27;1.07;;;1.07;;
18651;SDS011;9455;54.302;10.124;2023-04-01T06:45:16;1.37;;;1.27;;
18651;SDS011;9455;54.302;10.124;2023-04-01T06:47:58;6.90;;;2.93;;
18651;SDS011;9455;54.302;10.124;2023-04-01T06:50:38;2.73;;;1.60;;
18651;SDS011;9455;54.302;10.124;2023-04-01T06:53:13;7.20;;;2.20;;
18651;SDS011;9455;54.302;10.124;2023-04-01T06:55:47;2.77;;;2.33;;
18651;SDS011;9455;54.302;10.124;2023-04-01T06:58:19;5.47;;;2.10;;
18651;SDS011;9455;54.302;10.124;2023-04-01T07:00:51;2.87;;;2.60;;
18651;SDS011;9455;54.302;10.124;2023-04-01T07:03:21;12.20;;;4.70;;
18651;SDS011;9455;54.302;10.124;2023-04-01T07:05:54;7.27;;;4.33;;
18651;SDS011;9455;54.302;10.124;2023-04-01T07:08:25;11.27;;;6.03;;
18651;SDS011;9455;54.302;10.124;2023-04-01T07:10:56;6.27;;;4.20;;
18651;SDS011;9455;54.302;10.124;2023-04-01T07:13:29;4.53;;;3.00;;
18651;SDS011;9455;54.302;10.124;2023-04-01T07:16:06;4.30;;;4.00;;
18651;SDS011;9455;54.302;10.124;2023-04-01T07:18:41;5.97;;;2.70;;
18651;SDS011;9455;54.302;10.124;2023-04-01T07:21:13;4.00;;;2.13;;
18651;SDS011;9455;54.302;10.124;2023-04-01T07:23:47;2.33;;;1.90;;
18651;SDS011;9455;54.302;10.124;2023-04-01T07:26:18;6.03;;;2.90;;
18651;SDS011;9455;54.302;10.124;2023-04-01T07:28:46;4.77;;;2.10;;
18651;SDS011;9455;54.302;10.124;2023-04-01T07:31:16;4.10;;;2.80;;
18651;SDS011;9455;54.302;10.124;2023-04-01T07:33:53;2.50;;;2.30;;
18651;SDS011;9455;54.302;10.124;2023-04-01T07:36:28;3.13;;;1.63;;
18651;SDS011;9455;54.302;10.124;2023-04-01T07:39:02;3.33;;;1.83;;
18651;SDS011;9455;54.302;10.124;2023-04-01T07:41:42;4.33;;;1.80;;
18651;SDS011;9455;54.302;10.124;2023-04-01T07:44:18;3.23;;;1.80;;
18651;SDS011;9455;54.302;10.124;2023-04-01T07:46:58;1.77;;;1.67;;
18651;SDS011;9455;54.302;10.124;2023-04-01T07:49:34;2.43;;;1.50;;
18651;SDS011;9455;54.302;10.124;2023-04-01T07:52:11;3.13;;;1.87;;
18651;SDS011;9455;54.302;10.124;2023-04-01T07:54:48;2.63;;;1.70;;
18651;SDS011;9455;54.302;10.124;2023-04-01T07:57:21;2.10;;;1.90;;
18651;SDS011;9455;54.302;10.124;2023-04-01T07:59:57;2.60;;;2.40;;
18651;SDS011;9455;54.302;10.124;2023-04-01T08:02:34;7.50;;;2.57;;
18651;SDS011;9455;54.302;10.124;2023-04-01T08:05:14;2.10;;;1.90;;
18651;SDS011;9455;54.302;10.124;2023-04-01T08:07:49;1.97;;;1.63;;
18651;SDS011;9455;54.302;10.124;2023-04-01T08:10:26;2.03;;;1.93;;
18651;SDS011;9455;54.302;10.124;2023-04-01T08:13:05;1.40;;;1.30;;
18651;SDS011;9455;54.302;10.124;2023-04-01T08:15:43;2.17;;;1.33;;
18651;SDS011;9455;54.302;10.124;2023-04-01T08:18:22;1.80;;;1.50;;
18651;SDS011;9455;54.302;10.124;2023-04-01T08:20:59;2.33;;;1.63;;
18651;SDS011;9455;54.302;10.124;2023-04-01T08:23:30;2.00;;;1.60;;
18651;SDS011;9455;54.302;10.124;2023-04-01T08:26:00;9.17;;;4.33;;
18651;SDS011;9455;54.302;10.124;2023-04-01T08:28:33;3.87;;;3.37;;
18651;SDS011;9455;54.302;10.124;2023-04-01T08:31:05;2.27;;;1.93;;
18651;SDS011;9455;54.302;10.124;2023-04-01T08:33:36;1.93;;;1.83;;
18651;SDS011;9455;54.302;10.124;2023-04-01T08:36:06;13.30;;;2.90;;
18651;SDS011;9455;54.302;10.124;2023-04-01T08:38:38;3.30;;;2.60;;
18651;SDS011;9455;54.302;10.124;2023-04-01T08:47:20;5.17;;;3.00;;
18651;SDS011;9455;54.302;10.124;2023-04-01T08:50:01;2.27;;;2.07;;
18651;SDS011;9455;54.302;10.124;2023-04-01T08:52:49;3.80;;;2.37;;
18651;SDS011;9455;54.302;10.124;2023-04-01T08:58:24;13.27;;;5.87;;
18651;SDS011;9455;54.302;10.124;2023-04-01T09:01:20;14.03;;;5.63;;
18651;SDS011;9455;54.302;10.124;2023-04-01T09:04:14;12.80;;;6.03;;
18651;SDS011;9455;54.302;10.124;2023-04-01T09:06:50;9.10;;;4.10;;
18651;SDS011;9455;54.302;10.124;2023-04-01T09:09:39;7.73;;;3.53;;
18651;SDS011;9455;54.302;10.124;2023-04-01T09:12:25;8.63;;;3.27;;
18651;SDS011;9455;54.302;10.124;2023-04-01T09:18:17;5.23;;;2.87;;
18651;SDS011;9455;54.302;10.124;2023-04-01T09:24:10;5.23;;;2.80;;
18651;SDS011;9455;54.302;10.124;2023-04-01T09:26:57;6.03;;;3.50;;
18651;SDS011;9455;54.302;10.124;2023-04-01T09:29:35;5.67;;;3.20;;
18651;SDS011;9455;54.302;10.124;2023-04-01T09:32:27;7.30;;;3.57;;
18651;SDS011;9455;54.302;10.124;2023-04-01T09:35:16;9.33;;;3.70;;
18651;SDS011;9455;54.302;10.124;2023-04-01T09:37:51;7.23;;;3.50;;
18651;SDS011;9455;54.302;10.124;2023-04-01T09:40:22;15.03;;;5.03;;
18651;SDS011;9455;54.302;10.124;2023-04-01T09:45:52;8.23;;;4.00;;
18651;SDS011;9455;54.302;10.124;2023-04-01T09:48:37;8.13;;;4.47;;
18651;SDS011;9455;54.302;10.124;2023-04-01T09:51:21;9.97;;;4.87;;
18651;SDS011;9455;54.302;10.124;2023-04-01T09:53:57;7.30;;;3.47;;
18651;SDS011;9455;54.302;10.124;2023-04-01T09:59:49;8.20;;;3.67;;
18651;SDS011;9455;54.302;10.124;2023-04-01T10:06:09;9.63;;;4.90;;
18651;SDS011;9455;54.302;10.124;2023-04-01T10:18:06;10.13;;;4.80;;
18651;SDS011;9455;54.302;10.124;2023-04-01T10:20:55;13.10;;;5.07;;
18651;SDS011;9455;54.302;10.124;2023-04-01T10:23:40;17.47;;;6.10;;
18651;SDS011;9455;54.302;10.124;2023-04-01T10:26:40;9.17;;;5.07;;
18651;SDS011;9455;54.302;10.124;2023-04-01T10:29:32;7.47;;;4.60;;
18651;SDS011;9455;54.302;10.124;2023-04-01T10:32:37;14.27;;;5.13;;
18651;SDS011;9455;54.302;10.124;2023-04-01T10:38:33;11.33;;;5.13;;
18651;SDS011;9455;54.302;10.124;2023-04-01T10:44:51;16.90;;;4.43;;
18651;SDS011;9455;54.302;10.124;2023-04-01T10:48:01;6.47;;;4.60;;
18651;SDS011;9455;54.302;10.124;2023-04-01T10:50:47;18.57;;;7.73;;
18651;SDS011;9455;54.302;10.124;2023-04-01T11:05:27;55.37;;;14.37;;
18651;SDS011;9455;54.302;10.124;2023-04-01T11:11:28;34.77;;;9.47;;
18651;SDS011;9455;54.302;10.124;2023-04-01T11:14:18;20.20;;;7.07;;
18651;SDS011;9455;54.302;10.124;2023-04-01T11:17:35;28.93;;;11.53;;
18651;SDS011;9455;54.302;10.124;2023-04-01T11:25:56;12.53;;;4.20;;
18651;SDS011;9455;54.302;10.124;2023-04-01T11:31:39;10.53;;;4.57;;
18651;SDS011;9455;54.302;10.124;2023-04-01T11:34:20;9.77;;;4.13;;
18651;SDS011;9455;54.302;10.124;2023-04-01T11:37:00;8.10;;;3.80;;
18651;SDS011;9455;54.302;10.124;2023-04-01T11:39:36;8.63;;;4.00;;
18651;SDS011;9455;54.302;10.124;2023-04-01T11:42:14;15.20;;;3.87;;
18651;SDS011;9455;54.302;10.124;2023-04-01T11:44:50;12.67;;;3.50;;
18651;SDS011;9455;54.302;10.124;2023-04-01T11:47:38;5.83;;;4.17;;
18651;SDS011;9455;54.302;10.124;2023-04-01T11:50:21;6.83;;;3.87;;
18651;SDS011;9455;54.302;10.124;2023-04-01T11:53:00;11.37;;;5.13;;
18651;SDS011;9455;54.302;10.124;2023-04-01T11:55:40;10.97;;;3.90;;
18651;SDS011;9455;54.302;10.124;2023-04-01T11:58:23;5.07;;;3.30;;
18651;SDS011;9455;54.302;10.124;2023-04-01T12:01:05;12.53;;;4.73;;
18651;SDS011;9455;54.302;10.124;2023-04-01T12:03:54;11.17;;;3.57;;
18651;SDS011;9455;54.302;10.124;2023-04-01T12:06:47;8.77;;;3.70;;
18651;SDS011;9455;54.302;10.124;2023-04-01T12:09:19;7.27;;;3.67;;
18651;SDS011;9455;54.302;10.124;2023-04-01T12:11:52;9.37;;;3.63;;
18651;SDS011;9455;54.302;10.124;2023-04-01T12:14:30;10.37;;;4.00;;
18651;SDS011;9455;54.302;10.124;2023-04-01T12:17:09;8.63;;;3.30;;
18651;SDS011;9455;54.302;10.124;2023-04-01T12:19:53;5.13;;;3.23;;
18651;SDS011;9455;54.302;10.124;2023-04-01T12:22:30;14.73;;;4.37;;
18651;SDS011;9455;54.302;10.124;2023-04-01T12:25:14;15.70;;;4.50;;
18651;SDS011;9455;54.302;10.124;2023-04-01T12:27:58;13.73;;;5.70;;
18651;SDS011;9455;54.302;10.124;2023-04-01T12:33:48;14.27;;;6.17;;
18651;SDS011;9455;54.302;10.124;2023-04-01T12:39:32;10.40;;;5.43;;
18651;SDS011;9455;54.302;10.124;2023-04-01T12:42:11;8.20;;;3.50;;
18651;SDS011;9455;54.302;10.124;2023-04-01T12:44:54;7.83;;;4.00;;
18651;SDS011;9455;54.302;10.124;2023-04-01T12:47:56;6.83;;;3.73;;
18651;SDS011;9455;54.302;10.124;2023-04-01T12:50:34;15.43;;;4.80;;
18651;SDS011;9455;54.302;10.124;2023-04-01T12:53:24;13.07;;;4.50;;
18651;SDS011;9455;54.302;10.124;2023-04-01T12:56:09;18.77;;;4.23;;
18651;SDS011;9455;54.302;10.124;2023-04-01T12:59:00;9.27;;;3.53;;
18651;SDS011;9455;54.302;10.124;2023-04-01T13:01:59;31.53;;;11.43;;
18651;SDS011;9455;54.302;10.124;2023-04-01T13:04:46;9.33;;;4.30;;
18651;SDS011;9455;54.302;10.124;2023-04-01T13:07:40;10.13;;;2.83;;
18651;SDS011;9455;54.302;10.124;2023-04-01T13:10:21;6.10;;;3.17;;
18651;SDS011;9455;54.302;10.124;2023-04-01T13:13:09;10.07;;;4.43;;
18651;SDS011;9455;54.302;10.124;2023-04-01T13:15:54;12.57;;;3.30;;
18651;SDS011;9455;54.302;10.124;2023-04-01T13:18:27;10.67;;;4.67;;
18651;SDS011;9455;54.302;10.124;2023-04-01T13:21:05;6.57;;;2.87;;
18651;SDS011;9455;54.302;10.124;2023-04-01T13:23:40;8.77;;;3.73;;
18651;SDS011;9455;54.302;10.124;2023-04-01T13:26:17;8.83;;;3.67;;
18651;SDS011;9455;54.302;10.124;2023-04-01T13:28:52;7.70;;;2.93;;
18651;SDS011;9455;54.302;10.124;2023-04-01T13:31:30;11.13;;;2.80;;
18651;SDS011;9455;54.302;10.124;2023-04-01T13:34:17;13.03;;;3.73;;
18651;SDS011;9455;54.302;10.124;2023-04-01T13:37:00;5.87;;;3.00;;
18651;SDS011;9455;54.302;10.124;2023-04-01T13:39:46;9.00;;;3.17;;
18651;SDS011;9455;54.302;10.124;2023-04-01T13:42:23;8.27;;;2.77;;
18651;SDS011;9455;54.302;10.124;2023-04-01T13:44:56;7.97;;;3.17;;
18651;SDS011;9455;54.302;10.124;2023-04-01T13:56:37;12.37;;;3.87;;
18651;SDS011;9455;54.302;10.124;2023-04-01T14:02:31;7.87;;;2.77;;
18651;SDS011;9455;54.302;10.124;2023-04-01T14:08:10;9.00;;;4.13;;
18651;SDS011;9455;54.302;10.124;2023-04-01T14:10:48;9.80;;;3.80;;
18651;SDS011;9455;54.302;10.124;2023-04-01T14:13:27;12.43;;;4.93;;
18651;SDS011;9455;54.302;10.124;2023-04-01T14:16:04;6.30;;;3.90;;
18651;SDS011;9455;54.302;10.124;2023-04-01T14:18:52;13.77;;;5.00;;
18651;SDS011;9455;54.302;10.124;2023-04-01T14:21:32;33.00;;;12.37;;
18651;SDS011;9455;54.302;10.124;2023-04-01T14:24:09;20.40;;;7.37;;
18651;SDS011;9455;54.302;10.124;2023-04-01T14:29:53;19.30;;;6.53;;
18651;SDS011;9455;54.302;10.124;2023-04-01T14:32:38;13.17;;;5.30;;
18651;SDS011;9455;54.302;10.124;2023-04-01T14:38:27;36.23;;;9.70;;
18651;SDS011;9455;54.302;10.124;2023-04-01T14:41:05;4.60;;;2.53;;
18651;SDS011;9455;54.302;10.124;2023-04-01T14:43:47;13.03;;;6.07;;
18651;SDS011;9455;54.302;10.124;2023-04-01T14:46:34;8.93;;;2.57;;
18651;SDS011;9455;54.302;10.124;2023-04-01T14:49:24;8.13;;;5.57;;
18651;SDS011;9455;54.302;10.124;2023-04-01T14:52:05;13.10;;;3.70;;
18651;SDS011;9455;54.302;10.124;2023-04-01T14:54:38;8.97;;;4.33;;
18651;SDS011;9455;54.302;10.124;2023-04-01T14:57:10;14.97;;;4.43;;
18651;SDS011;9455;54.302;10.124;2023-04-01T14:59:41;3.33;;;2.20;;
18651;SDS011;9455;54.302;10.124;2023-04-01T15:02:18;9.47;;;3.50;;
18651;SDS011;9455;54.302;10.124;2023-04-01T15:05:14;3.30;;;2.93;;
18651;SDS011;9455;54.302;10.124;2023-04-01T15:07:57;4.37;;;2.13;;
18651;SDS011;9455;54.302;10.124;2023-04-01T15:10:44;7.00;;;3.00;;
18651;SDS011;9455;54.302;10.124;2023-04-01T15:13:37;6.43;;;3.20;;
18651;SDS011;9455;54.302;10.124;2023-04-01T15:16:24;5.13;;;2.97;;
18651;SDS011;9455;54.302;10.124;2023-04-01T15:19:00;15.50;;;2.73;;
18651;SDS011;9455;54.302;10.124;2023-04-01T15:21:42;2.97;;;1.97;;
18651;SDS011;9455;54.302;10.124;2023-04-01T15:24:19;4.00;;;2.23;;
18651;SDS011;9455;54.302;10.124;2023-04-01T15:27:01;7.27;;;1.80;;
18651;SDS011;9455;54.302;10.124;2023-04-01T15:29:43;10.60;;;2.50;;
18651;SDS011;9455;54.302;10.124;2023-04-01T15:32:27;6.50;;;2.93;;
18651;SDS011;9455;54.302;10.124;2023-04-01T15:35:10;12.43;;;4.87;;
18651;SDS011;9455;54.302;10.124;2023-04-01T15:37:53;12.37;;;4.00;;
18651;SDS011;9455;54.302;10.124;2023-04-01T15:40:27;7.93;;;4.30;;
18651;SDS011;9455;54.302;10.124;2023-04-01T15:43:02;11.47;;;3.67;;
18651;SDS011;9455;54.302;10.124;2023-04-01T15:45:42;14.10;;;3.87;;
18651;SDS011;9455;54.302;10.124;2023-04-01T15:51:16;11.27;;;4.13;;
18651;SDS011;9455;54.302;10.124;2023-04-01T15:53:55;10.47;;;3.43;;
18651;SDS011;9455;54.302;10.124;2023-04-01T15:56:49;5.87;;;1.83;;
18651;SDS011;9455;54.302;10.124;2023-04-01T15:59:42;5.03;;;2.73;;
18651;SDS011;9455;54.302;10.124;2023-04-01T16:02:19;4.93;;;2.70;;
18651;SDS011;9455;54.302;10.124;2023-04-01T16:04:57;3.53;;;1.60;;
18651;SDS011;9455;54.302;10.124;2023-04-01T16:07:36;6.60;;;2.23;;
18651;SDS011;9455;54.302;10.124;2023-04-01T16:10:16;11.53;;;1.67;;
18651;SDS011;9455;54.302;10.124;2023-04-01T16:12:57;8.33;;;3.00;;
18651;SDS011;9455;54.302;10.124;2023-04-01T16:15:36;10.30;;;3.37;;
18651;SDS011;9455;54.302;10.124;2023-04-01T16:18:12;10.23;;;2.80;;
18651;SDS011;9455;54.302;10.124;2023-04-01T16:20:55;4.73;;;2.43;;
18651;SDS011;9455;54.302;10.124;2023-04-01T16:23:29;7.90;;;2.10;;
18651;SDS011;9455;54.302;10.124;2023-04-01T16:26:05;2.63;;;2.00;;
18651;SDS011;9455;54.302;10.124;2023-04-01T16:28:38;14.30;;;2.90;;
18651;SDS011;9455;54.302;10.124;2023-04-01T16:31:15;8.90;;;2.03;;
18651;SDS011;9455;54.302;10.124;2023-04-01T16:33:56;2.90;;;1.83;;
18651;SDS011;9455;54.302;10.124;2023-04-01T16:36:28;2.50;;;1.57;;
18651;SDS011;9455;54.302;10.124;2023-04-01T16:39:08;10.47;;;2.10;;
18651;SDS011;9455;54.302;10.124;2023-04-01T16:41:47;5.53;;;1.37;;
18651;SDS011;9455;54.302;10.124;2023-04-01T16:44:18;8.53;;;2.27;;
18651;SDS011;9455;54.302;10.124;2023-04-01T16:46:49;4.50;;;1.43;;
18651;SDS011;9455;54.302;10.124;2023-04-01T16:49:25;3.47;;;1.50;;
18651;SDS011;9455;54.302;10.124;2023-04-01T16:52:12;9.47;;;1.77;;
18651;SDS011;9455;54.302;10.124;2023-04-01T16:54:43;58.83;;;18.50;;
18651;SDS011;9455;54.302;10.124;2023-04-01T16:57:17;6.47;;;2.93;;
18651;SDS011;9455;54.302;10.124;2023-04-01T16:59:52;5.53;;;1.20;;
18651;SDS011;9455;54.302;10.124;2023-04-01T17:02:27;6.63;;;2.33;;
18651;SDS011;9455;54.302;10.124;2023-04-01T17:05:00;6.10;;;1.70;;
18651;SDS011;9455;54.302;10.124;2023-04-01T17:07:32;2.70;;;1.90;;
18651;SDS011;9455;54.302;10.124;2023-04-01T17:10:16;4.10;;;2.03;;
18651;SDS011;9455;54.302;10.124;2023-04-01T17:12:53;8.97;;;1.93;;
18651;SDS011;9455;54.302;10.124;2023-04-01T17:15:33;7.50;;;2.30;;
18651;SDS011;9455;54.302;10.124;2023-04-01T17:18:07;6.97;;;1.50;;
18651;SDS011;9455;54.302;10.124;2023-04-01T17:20:40;2.13;;;1.50;;
18651;SDS011;9455;54.302;10.124;2023-04-01T17:23:12;5.40;;;1.93;;